createdAt,value
2023-01-09T00:02:48.040Z,96465.44
2023-01-09T00:07:50.366Z,96492.63
2023-01-09T00:12:52.860Z,96502.06
2023-01-09T00:17:55.252Z,96462.09
2023-01-09T00:22:57.494Z,96445.75
2023-01-09T00:28:00.108Z,96474.72
2023-01-09T00:33:02.305Z,96434.72
2023-01-09T00:38:04.943Z,96460.31
2023-01-09T00:43:07.373Z,96459.44
2023-01-09T00:48:13.755Z,96445.75
2023-01-09T00:53:19.309Z,96444.91
2023-01-09T00:58:21.388Z,96453.31
2023-01-09T01:03:23.570Z,96446.41
2023-01-09T01:08:26.024Z,96444.00
2023-01-09T01:13:28.378Z,96409.81
2023-01-09T01:18:30.554Z,96446.53
2023-01-09T01:23:32.664Z,96453.41
2023-01-09T01:28:35.257Z,96429.53
2023-01-09T01:33:37.596Z,96403.91
2023-01-09T01:38:40.012Z,96384.28
2023-01-09T01:43:59.038Z,96400.56
2023-01-09T01:49:09.381Z,96400.50
2023-01-09T01:54:18.089Z,96376.63
2023-01-09T01:59:27.652Z,96386.81
2023-01-09T02:04:33.514Z,96334.06
2023-01-09T02:09:37.921Z,96336.47
2023-01-09T02:14:40.391Z,96331.41
2023-01-09T02:19:48.932Z,96382.53
2023-01-09T02:25:09.750Z,96371.44
2023-01-09T02:30:21.127Z,96379.09
2023-01-09T02:35:51.340Z,96360.41
2023-01-09T02:41:18.204Z,96344.13
2023-01-09T02:46:23.269Z,96273.44
2023-01-09T02:51:33.485Z,96327.81
2023-01-09T02:56:53.189Z,96346.63
2023-01-09T03:02:24.730Z,96307.50
2023-01-09T03:07:42.741Z,96333.81
2023-01-09T03:12:47.129Z,96269.94
2023-01-09T03:17:52.961Z,96290.31
2023-01-09T03:22:57.889Z,96277.44
2023-01-09T03:28:07.834Z,96244.16
2023-01-09T03:33:10.765Z,96251.00
2023-01-09T03:38:13.345Z,96244.25
2023-01-09T03:43:15.812Z,96221.34
2023-01-09T03:48:18.355Z,96286.72
2023-01-09T03:53:22.228Z,96285.88
2023-01-09T03:58:25.502Z,96321.63
2023-01-09T04:03:28.875Z,96296.22
2023-01-09T04:08:31.426Z,96327.13
2023-01-09T04:13:33.744Z,96340.66
2023-01-09T04:18:35.973Z,96291.22
2023-01-09T04:23:38.418Z,96323.72
2023-01-09T04:28:40.709Z,96357.78
2023-01-09T04:33:42.963Z,96298.09
2023-01-09T04:38:45.452Z,96344.19
2023-01-09T04:43:47.757Z,96350.16
2023-01-09T04:48:50.220Z,96319.38
2023-01-09T04:53:52.557Z,96324.56
2023-01-09T04:58:54.900Z,96343.22
2023-01-09T05:03:57.425Z,96353.50
2023-01-09T05:08:59.752Z,96288.72
2023-01-09T05:14:02.228Z,96320.97
2023-01-09T05:19:04.454Z,96346.69
2023-01-09T05:24:06.892Z,96293.00
2023-01-09T05:29:10.170Z,96311.19
2023-01-09T05:34:12.525Z,96319.56
2023-01-09T05:39:14.871Z,96331.47
2023-01-09T05:44:17.251Z,96305.81
2023-01-09T05:49:19.574Z,96322.75
2023-01-09T05:54:21.792Z,96334.75
2023-01-09T05:59:23.911Z,96299.69
2023-01-09T06:04:30.116Z,96355.16
2023-01-09T06:09:32.620Z,96357.66
2023-01-09T06:14:34.805Z,96331.94
2023-01-09T06:19:37.403Z,96339.44
2023-01-09T06:24:39.939Z,96308.53
2023-01-09T06:29:42.142Z,96299.94
2023-01-09T06:34:44.303Z,96301.66
2023-01-09T06:39:46.972Z,96297.47
2023-01-09T06:44:49.296Z,96294.78
2023-01-09T06:49:51.459Z,96285.25
2023-01-09T06:54:53.622Z,96267.88
2023-01-09T06:59:55.947Z,96245.75
2023-01-09T07:05:01.153Z,96251.34
2023-01-09T07:10:04.278Z,96287.09
